sensor_id;sensor_type;location;lat;lon;timestamp;temperature;humidity
68842;SHT35;55849;48.482;2.332;2024-02-26T00:00:22;11.29;81.53
68842;SHT35;55849;48.482;2.332;2024-02-26T00:03:23;11.26;81.59
68842;SHT35;55849;48.482;2.332;2024-02-26T00:06:25;11.28;81.61
68842;SHT35;55849;48.482;2.332;2024-02-26T00:09:26;11.26;81.67
68842;SHT35;55849;48.482;2.332;2024-02-26T00:12:28;11.29;81.65
68842;SHT35;55849;48.482;2.332;2024-02-26T00:15:31;11.25;81.72
68842;SHT35;55849;48.482;2.332;2024-02-26T05:19:39;10.63;81.38
68842;SHT35;55849;48.482;2.332;2024-02-26T05:22:41;10.62;81.48
68842;SHT35;55849;48.482;2.332;2024-02-26T05:25:42;10.60;81.80
68842;SHT35;55849;48.482;2.332;2024-02-26T05:28:47;10.59;82.00
68842;SHT35;55849;48.482;2.332;2024-02-26T05:31:48;10.57;81.33
68842;SHT35;55849;48.482;2.332;2024-02-26T05:34:51;10.55;81.43
68842;SHT35;55849;48.482;2.332;2024-02-26T05:37:53;10.50;81.50
68842;SHT35;55849;48.482;2.332;2024-02-26T05:40:55;10.53;81.72
68842;SHT35;55849;48.482;2.332;2024-02-26T05:43:56;10.50;81.83
68842;SHT35;55849;48.482;2.332;2024-02-26T05:46:58;10.52;82.34
68842;SHT35;55849;48.482;2.332;2024-02-26T05:50:01;10.50;82.25
68842;SHT35;55849;48.482;2.332;2024-02-26T05:53:03;10.52;82.27
68842;SHT35;55849;48.482;2.332;2024-02-26T05:56:06;10.53;82.10
68842;SHT35;55849;48.482;2.332;2024-02-26T05:59:08;10.55;82.39
68842;SHT35;55849;48.482;2.332;2024-02-26T06:02:10;10.57;82.47
68842;SHT35;55849;48.482;2.332;2024-02-26T06:05:13;10.55;82.48
68842;SHT35;55849;48.482;2.332;2024-02-26T06:08:14;10.57;82.39
68842;SHT35;55849;48.482;2.332;2024-02-26T06:11:16;10.57;82.44
68842;SHT35;55849;48.482;2.332;2024-02-26T06:14:17;10.59;82.32
68842;SHT35;55849;48.482;2.332;2024-02-26T06:17:19;10.60;82.41
68842;SHT35;55849;48.482;2.332;2024-02-26T06:20:22;10.60;82.43
68842;SHT35;55849;48.482;2.332;2024-02-26T06:23:24;10.60;82.44
68842;SHT35;55849;48.482;2.332;2024-02-26T06:26:26;10.66;82.48
68842;SHT35;55849;48.482;2.332;2024-02-26T06:29:29;10.64;82.40
68842;SHT35;55849;48.482;2.332;2024-02-26T06:32:30;10.64;82.47
68842;SHT35;55849;48.482;2.332;2024-02-26T06:35:33;10.66;82.35
68842;SHT35;55849;48.482;2.332;2024-02-26T06:38:35;10.66;82.47
68842;SHT35;55849;48.482;2.332;2024-02-26T06:41:36;10.66;82.36
68842;SHT35;55849;48.482;2.332;2024-02-26T06:44:39;10.69;82.43
68842;SHT35;55849;48.482;2.332;2024-02-26T06:47:41;10.66;82.39
68842;SHT35;55849;48.482;2.332;2024-02-26T06:50:44;10.69;82.35
68842;SHT35;55849;48.482;2.332;2024-02-26T06:53:46;10.70;82.38
68842;SHT35;55849;48.482;2.332;2024-02-26T06:56:47;10.69;82.36
68842;SHT35;55849;48.482;2.332;2024-02-26T06:59:49;10.71;82.33
68842;SHT35;55849;48.482;2.332;2024-02-26T07:02:50;10.73;82.31
68842;SHT35;55849;48.482;2.332;2024-02-26T07:05:53;10.73;82.44
68842;SHT35;55849;48.482;2.332;2024-02-26T07:08:55;10.74;82.40
68842;SHT35;55849;48.482;2.332;2024-02-26T07:11:57;10.76;82.38
68842;SHT35;55849;48.482;2.332;2024-02-26T07:14:58;10.76;82.42
68842;SHT35;55849;48.482;2.332;2024-02-26T07:18:00;10.74;82.47
68842;SHT35;55849;48.482;2.332;2024-02-26T07:21:05;10.77;82.41
68842;SHT35;55849;48.482;2.332;2024-02-26T07:24:06;10.77;82.39
68842;SHT35;55849;48.482;2.332;2024-02-26T07:27:09;10.79;82.41
68842;SHT35;55849;48.482;2.332;2024-02-26T07:30:11;10.83;82.40
68842;SHT35;55849;48.482;2.332;2024-02-26T07:33:13;10.81;82.41
68842;SHT35;55849;48.482;2.332;2024-02-26T07:36:16;10.83;82.37
68842;SHT35;55849;48.482;2.332;2024-02-26T07:39:17;10.85;82.36
68842;SHT35;55849;48.482;2.332;2024-02-26T07:42:19;10.84;82.43
68842;SHT35;55849;48.482;2.332;2024-02-26T07:45:20;10.91;82.41
68842;SHT35;55849;48.482;2.332;2024-02-26T07:48:22;10.90;82.42
68842;SHT35;55849;48.482;2.332;2024-02-26T07:51:25;10.94;82.40
68842;SHT35;55849;48.482;2.332;2024-02-26T07:54:26;10.93;82.38
68842;SHT35;55849;48.482;2.332;2024-02-26T07:57:28;10.94;82.50
68842;SHT35;55849;48.482;2.332;2024-02-26T08:00:30;10.98;82.52
68842;SHT35;55849;48.482;2.332;2024-02-26T08:03:31;11.01;82.51
68842;SHT35;55849;48.482;2.332;2024-02-26T08:06:34;11.01;82.53
68842;SHT35;55849;48.482;2.332;2024-02-26T08:09:36;11.05;82.54
68842;SHT35;55849;48.482;2.332;2024-02-26T08:12:37;11.07;82.51
68842;SHT35;55849;48.482;2.332;2024-02-26T08:15:39;11.11;82.50
68842;SHT35;55849;48.482;2.332;2024-02-26T08:18:40;11.11;82.51
68842;SHT35;55849;48.482;2.332;2024-02-26T08:21:43;11.14;82.55
68842;SHT35;55849;48.482;2.332;2024-02-26T08:24:45;11.16;82.64
68842;SHT35;55849;48.482;2.332;2024-02-26T08:27:46;11.22;82.65
68842;SHT35;55849;48.482;2.332;2024-02-26T08:30:48;11.23;82.73
68842;SHT35;55849;48.482;2.332;2024-02-26T08:33:50;11.26;82.68
68842;SHT35;55849;48.482;2.332;2024-02-26T08:36:53;11.31;82.68
68842;SHT35;55849;48.482;2.332;2024-02-26T08:39:54;11.35;82.69
68842;SHT35;55849;48.482;2.332;2024-02-26T08:42:56;11.39;82.82
68842;SHT35;55849;48.482;2.332;2024-02-26T08:45:58;11.42;82.75
68842;SHT35;55849;48.482;2.332;2024-02-26T08:48:59;11.46;82.69
68842;SHT35;55849;48.482;2.332;2024-02-26T08:52:04;11.50;82.59
68842;SHT35;55849;48.482;2.332;2024-02-26T08:55:07;11.52;82.63
68842;SHT35;55849;48.482;2.332;2024-02-26T08:58:09;11.56;82.57
68842;SHT35;55849;48.482;2.332;2024-02-26T09:01:10;11.60;82.57
68842;SHT35;55849;48.482;2.332;2024-02-26T09:04:12;11.60;82.62
68842;SHT35;55849;48.482;2.332;2024-02-26T09:07:15;11.66;82.53
68842;SHT35;55849;48.482;2.332;2024-02-26T09:10:16;11.70;82.77
68842;SHT35;55849;48.482;2.332;2024-02-26T09:13:18;11.70;82.70
68842;SHT35;55849;48.482;2.332;2024-02-26T09:16:20;11.74;82.88
68842;SHT35;55849;48.482;2.332;2024-02-26T09:19:21;11.77;82.72
68842;SHT35;55849;48.482;2.332;2024-02-26T09:22:24;11.78;82.60
68842;SHT35;55849;48.482;2.332;2024-02-26T09:25:26;11.82;82.46
68842;SHT35;55849;48.482;2.332;2024-02-26T09:28:28;11.85;82.46
68842;SHT35;55849;48.482;2.332;2024-02-26T09:31:32;11.88;82.53
68842;SHT35;55849;48.482;2.332;2024-02-26T09:34:34;11.88;82.55
68842;SHT35;55849;48.482;2.332;2024-02-26T09:37:38;11.88;82.54
68842;SHT35;55849;48.482;2.332;2024-02-26T09:40:40;11.94;82.83
68842;SHT35;55849;48.482;2.332;2024-02-26T09:43:44;11.97;82.62
68842;SHT35;55849;48.482;2.332;2024-02-26T09:46:47;11.99;82.67
68842;SHT35;55849;48.482;2.332;2024-02-26T09:49:49;12.01;82.72
68842;SHT35;55849;48.482;2.332;2024-02-26T09:52:54;12.06;82.75
68842;SHT35;55849;48.482;2.332;2024-02-26T09:56:00;12.05;82.38
68842;SHT35;55849;48.482;2.332;2024-02-26T09:59:05;12.09;82.24
68842;SHT35;55849;48.482;2.332;2024-02-26T10:02:10;12.11;82.30
68842;SHT35;55849;48.482;2.332;2024-02-26T10:05:14;12.12;82.31
68842;SHT35;55849;48.482;2.332;2024-02-26T10:08:19;12.14;82.35
68842;SHT35;55849;48.482;2.332;2024-02-26T10:11:23;12.16;82.40
68842;SHT35;55849;48.482;2.332;2024-02-26T10:14:25;12.21;82.36
68842;SHT35;55849;48.482;2.332;2024-02-26T10:17:27;12.24;82.31
68842;SHT35;55849;48.482;2.332;2024-02-26T10:20:28;12.24;82.32
68842;SHT35;55849;48.482;2.332;2024-02-26T10:23:33;12.26;82.34
68842;SHT35;55849;48.482;2.332;2024-02-26T10:26:35;12.29;82.38
68842;SHT35;55849;48.482;2.332;2024-02-26T10:29:37;12.34;82.32
68842;SHT35;55849;48.482;2.332;2024-02-26T10:32:39;12.36;82.30
68842;SHT35;55849;48.482;2.332;2024-02-26T10:35:45;12.37;82.29
68842;SHT35;55849;48.482;2.332;2024-02-26T10:38:48;12.42;82.10
68842;SHT35;55849;48.482;2.332;2024-02-26T10:41:49;12.42;82.28
68842;SHT35;55849;48.482;2.332;2024-02-26T10:44:51;12.46;82.44
68842;SHT35;55849;48.482;2.332;2024-02-26T10:47:53;12.49;82.65
68842;SHT35;55849;48.482;2.332;2024-02-26T10:50:54;12.53;82.45
68842;SHT35;55849;48.482;2.332;2024-02-26T10:53:59;12.57;82.14
68842;SHT35;55849;48.482;2.332;2024-02-26T10:57:02;12.57;82.12
68842;SHT35;55849;48.482;2.332;2024-02-26T11:00:06;12.60;81.96
68842;SHT35;55849;48.482;2.332;2024-02-26T11:03:11;12.60;81.65
68842;SHT35;55849;48.482;2.332;2024-02-26T11:06:14;12.60;81.64
68842;SHT35;55849;48.482;2.332;2024-02-26T11:09:19;12.63;81.45
68842;SHT35;55849;48.482;2.332;2024-02-26T11:12:21;12.60;81.38
68842;SHT35;55849;48.482;2.332;2024-02-26T11:15:23;12.60;81.38
68842;SHT35;55849;48.482;2.332;2024-02-26T11:18:27;12.60;81.38
68842;SHT35;55849;48.482;2.332;2024-02-26T11:21:29;12.59;81.44
68842;SHT35;55849;48.482;2.332;2024-02-26T11:24:40;12.59;81.60
68842;SHT35;55849;48.482;2.332;2024-02-26T11:27:46;12.59;81.48
68842;SHT35;55849;48.482;2.332;2024-02-26T11:30:49;12.60;81.54
68842;SHT35;55849;48.482;2.332;2024-02-26T11:33:52;12.59;81.36
68842;SHT35;55849;48.482;2.332;2024-02-26T11:36:54;12.61;81.40
68842;SHT35;55849;48.482;2.332;2024-02-26T11:39:59;12.60;81.50
68842;SHT35;55849;48.482;2.332;2024-02-26T11:43:01;12.61;81.48
68842;SHT35;55849;48.482;2.332;2024-02-26T11:46:02;12.60;81.37
68842;SHT35;55849;48.482;2.332;2024-02-26T11:49:31;12.60;81.36
68842;SHT35;55849;48.482;2.332;2024-02-26T11:52:32;12.61;81.46
68842;SHT35;55849;48.482;2.332;2024-02-26T11:55:35;12.63;81.42
68842;SHT35;55849;48.482;2.332;2024-02-26T11:58:39;12.63;81.47
68842;SHT35;55849;48.482;2.332;2024-02-26T12:01:45;12.63;81.49
68842;SHT35;55849;48.482;2.332;2024-02-26T12:04:49;12.65;81.48
68842;SHT35;55849;48.482;2.332;2024-02-26T12:07:53;12.65;81.57
68842;SHT35;55849;48.482;2.332;2024-02-26T12:10:56;12.67;81.57
68842;SHT35;55849;48.482;2.332;2024-02-26T12:13:58;12.68;81.60
68842;SHT35;55849;48.482;2.332;2024-02-26T12:17:00;12.71;81.63
68842;SHT35;55849;48.482;2.332;2024-02-26T12:20:09;12.74;82.04
68842;SHT35;55849;48.482;2.332;2024-02-26T12:23:14;12.78;82.09
68842;SHT35;55849;48.482;2.332;2024-02-26T12:26:18;12.81;82.14
68842;SHT35;55849;48.482;2.332;2024-02-26T12:29:20;12.87;82.37
68842;SHT35;55849;48.482;2.332;2024-02-26T12:32:23;12.92;82.13
68842;SHT35;55849;48.482;2.332;2024-02-26T12:35:25;12.95;82.28
68842;SHT35;55849;48.482;2.332;2024-02-26T12:38:27;12.98;82.11
68842;SHT35;55849;48.482;2.332;2024-02-26T12:41:31;13.06;82.29
68842;SHT35;55849;48.482;2.332;2024-02-26T12:44:33;13.10;82.15
68842;SHT35;55849;48.482;2.332;2024-02-26T12:47:36;13.13;82.04
68842;SHT35;55849;48.482;2.332;2024-02-26T12:50:38;13.18;81.93
68842;SHT35;55849;48.482;2.332;2024-02-26T12:53:39;13.19;81.91
68842;SHT35;55849;48.482;2.332;2024-02-26T12:56:43;13.24;81.75
68842;SHT35;55849;48.482;2.332;2024-02-26T12:59:45;13.26;81.76
68842;SHT35;55849;48.482;2.332;2024-02-26T13:02:46;13.29;81.62
68842;SHT35;55849;48.482;2.332;2024-02-26T13:05:50;13.33;81.88
68842;SHT35;55849;48.482;2.332;2024-02-26T13:08:56;13.36;81.66
68842;SHT35;55849;48.482;2.332;2024-02-26T13:12:04;13.39;81.70
68842;SHT35;55849;48.482;2.332;2024-02-26T13:15:06;13.44;81.74
68842;SHT35;55849;48.482;2.332;2024-02-26T13:18:12;13.48;81.56
68842;SHT35;55849;48.482;2.332;2024-02-26T13:21:15;13.54;81.51
68842;SHT35;55849;48.482;2.332;2024-02-26T13:24:19;13.55;81.09
68842;SHT35;55849;48.482;2.332;2024-02-26T13:27:23;13.58;80.98
68842;SHT35;55849;48.482;2.332;2024-02-26T13:30:27;13.60;80.90
68842;SHT35;55849;48.482;2.332;2024-02-26T13:33:29;13.60;80.64
68842;SHT35;55849;48.482;2.332;2024-02-26T13:36:31;13.58;80.74
68842;SHT35;55849;48.482;2.332;2024-02-26T13:39:32;13.60;80.74
68842;SHT35;55849;48.482;2.332;2024-02-26T13:42:35;13.60;80.89
68842;SHT35;55849;48.482;2.332;2024-02-26T13:45:38;13.60;80.63
68842;SHT35;55849;48.482;2.332;2024-02-26T13:48:40;13.58;80.37
68842;SHT35;55849;48.482;2.332;2024-02-26T13:51:42;13.55;80.24
68842;SHT35;55849;48.482;2.332;2024-02-26T13:54:43;13.53;80.18
68842;SHT35;55849;48.482;2.332;2024-02-26T13:57:46;13.53;80.22
68842;SHT35;55849;48.482;2.332;2024-02-26T14:00:48;13.50;80.30
68842;SHT35;55849;48.482;2.332;2024-02-26T14:03:50;13.47;80.16
68842;SHT35;55849;48.482;2.332;2024-02-26T14:06:51;13.46;80.18
68842;SHT35;55849;48.482;2.332;2024-02-26T14:09:53;13.42;80.22
68842;SHT35;55849;48.482;2.332;2024-02-26T14:12:56;13.37;80.16
68842;SHT35;55849;48.482;2.332;2024-02-26T14:15:57;13.36;79.88
68842;SHT35;55849;48.482;2.332;2024-02-26T14:18:59;13.30;79.83
68842;SHT35;55849;48.482;2.332;2024-02-26T14:22:00;13.24;79.87
68842;SHT35;55849;48.482;2.332;2024-02-26T14:25:02;13.22;79.89
68842;SHT35;55849;48.482;2.332;2024-02-26T14:28:06;13.18;79.73
68842;SHT35;55849;48.482;2.332;2024-02-26T14:31:07;13.13;79.87
68842;SHT35;55849;48.482;2.332;2024-02-26T14:34:10;13.09;79.83
68842;SHT35;55849;48.482;2.332;2024-02-26T14:37:12;13.05;79.89
68842;SHT35;55849;48.482;2.332;2024-02-26T14:40:13;12.99;80.09
68842;SHT35;55849;48.482;2.332;2024-02-26T14:43:17;12.96;80.07
68842;SHT35;55849;48.482;2.332;2024-02-26T14:46:18;12.95;80.13
68842;SHT35;55849;48.482;2.332;2024-02-26T14:49:20;12.89;79.92
68842;SHT35;55849;48.482;2.332;2024-02-26T14:52:21;12.87;80.03
68842;SHT35;55849;48.482;2.332;2024-02-26T14:55:23;12.81;79.97
68842;SHT35;55849;48.482;2.332;2024-02-26T14:58:26;12.78;80.13
68842;SHT35;55849;48.482;2.332;2024-02-26T15:01:28;12.77;80.18
68842;SHT35;55849;48.482;2.332;2024-02-26T15:04:29;12.75;80.11
68842;SHT35;55849;48.482;2.332;2024-02-26T15:07:31;12.73;80.07
68842;SHT35;55849;48.482;2.332;2024-02-26T15:10:32;12.67;79.98
68842;SHT35;55849;48.482;2.332;2024-02-26T15:13:35;12.64;80.35
68842;SHT35;55849;48.482;2.332;2024-02-26T15:16:37;12.60;80.11
68842;SHT35;55849;48.482;2.332;2024-02-26T15:19:39;12.57;80.17
68842;SHT35;55849;48.482;2.332;2024-02-26T15:22:41;12.57;80.21
68842;SHT35;55849;48.482;2.332;2024-02-26T15:25:42;12.51;80.07
68842;SHT35;55849;48.482;2.332;2024-02-26T15:28:46;12.50;80.23
68842;SHT35;55849;48.482;2.332;2024-02-26T15:31:47;12.44;80.09
68842;SHT35;55849;48.482;2.332;2024-02-26T15:34:49;12.42;79.94
68842;SHT35;55849;48.482;2.332;2024-02-26T15:37:51;12.36;80.00
68842;SHT35;55849;48.482;2.332;2024-02-26T15:40:52;12.32;80.21
68842;SHT35;55849;48.482;2.332;2024-02-26T15:43:56;12.28;80.28
68842;SHT35;55849;48.482;2.332;2024-02-26T15:46:57;12.25;80.38
68842;SHT35;55849;48.482;2.332;2024-02-26T15:49:59;12.19;79.99
68842;SHT35;55849;48.482;2.332;2024-02-26T15:53:02;12.16;80.16
68842;SHT35;55849;48.482;2.332;2024-02-26T15:56:05;12.16;80.43
68842;SHT35;55849;48.482;2.332;2024-02-26T15:59:08;12.11;80.15
68842;SHT35;55849;48.482;2.332;2024-02-26T16:02:10;12.06;80.58
68842;SHT35;55849;48.482;2.332;2024-02-26T16:05:12;12.06;80.57
68842;SHT35;55849;48.482;2.332;2024-02-26T16:08:17;12.04;80.63
68842;SHT35;55849;48.482;2.332;2024-02-26T16:11:20;11.99;80.44
68842;SHT35;55849;48.482;2.332;2024-02-26T16:14:31;11.99;80.24
68842;SHT35;55849;48.482;2.332;2024-02-26T16:17:40;11.92;80.65
68842;SHT35;55849;48.482;2.332;2024-02-26T16:20:47;11.91;80.74
68842;SHT35;55849;48.482;2.332;2024-02-26T16:23:48;11.87;80.41
68842;SHT35;55849;48.482;2.332;2024-02-26T16:26:50;11.85;80.58
68842;SHT35;55849;48.482;2.332;2024-02-26T16:29:53;11.84;80.74
68842;SHT35;55849;48.482;2.332;2024-02-26T16:32:54;11.81;80.56
68842;SHT35;55849;48.482;2.332;2024-02-26T16:35:56;11.74;80.24
68842;SHT35;55849;48.482;2.332;2024-02-26T16:38:57;11.71;80.87
68842;SHT35;55849;48.482;2.332;2024-02-26T16:41:59;11.69;80.61
68842;SHT35;55849;48.482;2.332;2024-02-26T16:45:02;11.67;80.51
68842;SHT35;55849;48.482;2.332;2024-02-26T16:48:04;11.64;80.89
68842;SHT35;55849;48.482;2.332;2024-02-26T16:51:06;11.63;80.62
68842;SHT35;55849;48.482;2.332;2024-02-26T16:54:07;11.62;80.61
68842;SHT35;55849;48.482;2.332;2024-02-26T16:57:09;11.60;80.75
68842;SHT35;55849;48.482;2.332;2024-02-26T17:00:13;11.56;80.51
68842;SHT35;55849;48.482;2.332;2024-02-26T17:03:17;11.52;80.39
68842;SHT35;55849;48.482;2.332;2024-02-26T17:06:18;11.46;80.20
68842;SHT35;55849;48.482;2.332;2024-02-26T17:09:23;11.43;80.49
68842;SHT35;55849;48.482;2.332;2024-02-26T17:12:25;11.40;80.44
68842;SHT35;55849;48.482;2.332;2024-02-26T17:15:28;11.38;80.82
68842;SHT35;55849;48.482;2.332;2024-02-26T17:18:29;11.33;80.82
68842;SHT35;55849;48.482;2.332;2024-02-26T17:21:31;11.35;80.96
68842;SHT35;55849;48.482;2.332;2024-02-26T17:24:33;11.29;80.55
68842;SHT35;55849;48.482;2.332;2024-02-26T17:27:34;11.26;80.28
68842;SHT35;55849;48.482;2.332;2024-02-26T17:30:38;11.25;80.49
68842;SHT35;55849;48.482;2.332;2024-02-26T17:33:40;11.21;81.09
68842;SHT35;55849;48.482;2.332;2024-02-26T17:36:42;11.22;80.75
68842;SHT35;55849;48.482;2.332;2024-02-26T17:39:43;11.16;80.80
68842;SHT35;55849;48.482;2.332;2024-02-26T17:42:45;11.18;80.91
68842;SHT35;55849;48.482;2.332;2024-02-26T17:45:48;11.14;80.66
68842;SHT35;55849;48.482;2.332;2024-02-26T17:48:49;11.10;80.72
68842;SHT35;55849;48.482;2.332;2024-02-26T17:51:51;11.08;80.28
68842;SHT35;55849;48.482;2.332;2024-02-26T17:54:53;11.07;80.64
68842;SHT35;55849;48.482;2.332;2024-02-26T17:57:54;11.04;80.72
68842;SHT35;55849;48.482;2.332;2024-02-26T18:00:57;11.04;80.55
68842;SHT35;55849;48.482;2.332;2024-02-26T18:03:59;10.98;80.89
68842;SHT35;55849;48.482;2.332;2024-02-26T18:07:00;11.00;80.96
68842;SHT35;55849;48.482;2.332;2024-02-26T18:10:04;10.97;81.01
68842;SHT35;55849;48.482;2.332;2024-02-26T18:13:09;10.98;80.76
68842;SHT35;55849;48.482;2.332;2024-02-26T18:16:12;10.95;80.74
68842;SHT35;55849;48.482;2.332;2024-02-26T18:19:13;10.93;81.20
68842;SHT35;55849;48.482;2.332;2024-02-26T18:22:15;10.90;81.03
68842;SHT35;55849;48.482;2.332;2024-02-26T18:25:17;10.91;80.64
68842;SHT35;55849;48.482;2.332;2024-02-26T18:28:18;10.88;81.03
68842;SHT35;55849;48.482;2.332;2024-02-26T18:31:23;10.84;81.02
68842;SHT35;55849;48.482;2.332;2024-02-26T18:34:24;10.81;80.70
68842;SHT35;55849;48.482;2.332;2024-02-26T18:37:26;10.80;80.80
68842;SHT35;55849;48.482;2.332;2024-02-26T18:40:29;10.80;80.56
68842;SHT35;55849;48.482;2.332;2024-02-26T18:43:30;10.79;81.07
68842;SHT35;55849;48.482;2.332;2024-02-26T18:46:33;10.76;81.07
68842;SHT35;55849;48.482;2.332;2024-02-26T18:49:38;10.74;81.56
68842;SHT35;55849;48.482;2.332;2024-02-26T18:52:40;10.73;81.48
68842;SHT35;55849;48.482;2.332;2024-02-26T18:55:41;10.71;81.02
68842;SHT35;55849;48.482;2.332;2024-02-26T18:58:43;10.70;81.31
68842;SHT35;55849;48.482;2.332;2024-02-26T19:01:46;10.70;81.08
68842;SHT35;55849;48.482;2.332;2024-02-26T19:04:47;10.69;81.26
68842;SHT35;55849;48.482;2.332;2024-02-26T19:07:49;10.67;81.34
68842;SHT35;55849;48.482;2.332;2024-02-26T19:10:55;10.64;81.41
68842;SHT35;55849;48.482;2.332;2024-02-26T19:13:59;10.66;81.14
68842;SHT35;55849;48.482;2.332;2024-02-26T19:17:02;10.63;80.86
68842;SHT35;55849;48.482;2.332;2024-02-26T19:20:04;10.60;80.98
68842;SHT35;55849;48.482;2.332;2024-02-26T19:23:06;10.59;81.45
68842;SHT35;55849;48.482;2.332;2024-02-26T19:26:07;10.57;81.23
68842;SHT35;55849;48.482;2.332;2024-02-26T19:29:09;10.57;80.86
68842;SHT35;55849;48.482;2.332;2024-02-26T19:32:12;10.56;81.29
68842;SHT35;55849;48.482;2.332;2024-02-26T19:35:14;10.56;80.87
68842;SHT35;55849;48.482;2.332;2024-02-26T19:38:16;10.50;80.95
68842;SHT35;55849;48.482;2.332;2024-02-26T19:41:18;10.50;80.99
68842;SHT35;55849;48.482;2.332;2024-02-26T19:44:19;10.48;81.11
68842;SHT35;55849;48.482;2.332;2024-02-26T19:47:22;10.48;81.04
68842;SHT35;55849;48.482;2.332;2024-02-26T19:50:24;10.46;81.60
68842;SHT35;55849;48.482;2.332;2024-02-26T19:53:26;10.44;81.33
68842;SHT35;55849;48.482;2.332;2024-02-26T19:56:27;10.46;81.60
68842;SHT35;55849;48.482;2.332;2024-02-26T19:59:29;10.46;81.76
68842;SHT35;55849;48.482;2.332;2024-02-26T20:02:32;10.46;81.49
68842;SHT35;55849;48.482;2.332;2024-02-26T20:05:35;10.42;81.09
68842;SHT35;55849;48.482;2.332;2024-02-26T20:08:37;10.44;81.59
68842;SHT35;55849;48.482;2.332;2024-02-26T20:11:38;10.42;81.10
68842;SHT35;55849;48.482;2.332;2024-02-26T20:14:41;10.38;80.90
68842;SHT35;55849;48.482;2.332;2024-02-26T20:17:45;10.38;80.85
68842;SHT35;55849;48.482;2.332;2024-02-26T20:20:46;10.38;81.55
68842;SHT35;55849;48.482;2.332;2024-02-26T20:23:48;10.38;81.36
68842;SHT35;55849;48.482;2.332;2024-02-26T20:26:49;10.32;81.26
68842;SHT35;55849;48.482;2.332;2024-02-26T20:29:51;10.34;81.35
68842;SHT35;55849;48.482;2.332;2024-02-26T20:32:57;10.34;81.20
68842;SHT35;55849;48.482;2.332;2024-02-26T20:35:59;10.32;81.06
68842;SHT35;55849;48.482;2.332;2024-02-26T20:39:01;10.29;81.58
68842;SHT35;55849;48.482;2.332;2024-02-26T20:42:04;10.29;81.33
68842;SHT35;55849;48.482;2.332;2024-02-26T20:45:06;10.32;81.31
68842;SHT35;55849;48.482;2.332;2024-02-26T20:48:09;10.29;81.65
68842;SHT35;55849;48.482;2.332;2024-02-26T20:51:11;10.27;81.08
68842;SHT35;55849;48.482;2.332;2024-02-26T20:54:13;10.22;81.39
68842;SHT35;55849;48.482;2.332;2024-02-26T20:57:14;10.22;81.12
68842;SHT35;55849;48.482;2.332;2024-02-26T21:00:17;10.24;81.25
68842;SHT35;55849;48.482;2.332;2024-02-26T21:03:20;10.22;81.10
68842;SHT35;55849;48.482;2.332;2024-02-26T21:06:21;10.21;81.54
68842;SHT35;55849;48.482;2.332;2024-02-26T21:09:23;10.19;81.50
68842;SHT35;55849;48.482;2.332;2024-02-26T21:12:24;10.21;81.18
68842;SHT35;55849;48.482;2.332;2024-02-26T21:15:27;10.15;81.72
68842;SHT35;55849;48.482;2.332;2024-02-26T21:18:30;10.18;81.49
68842;SHT35;55849;48.482;2.332;2024-02-26T21:21:32;10.19;81.68
68842;SHT35;55849;48.482;2.332;2024-02-26T21:24:35;10.15;81.29
68842;SHT35;55849;48.482;2.332;2024-02-26T21:27:37;10.17;81.63
68842;SHT35;55849;48.482;2.332;2024-02-26T21:30:38;10.15;81.64
68842;SHT35;55849;48.482;2.332;2024-02-26T21:33:43;10.17;81.62
68842;SHT35;55849;48.482;2.332;2024-02-26T21:36:44;10.14;81.44
68842;SHT35;55849;48.482;2.332;2024-02-26T21:39:46;10.14;81.37
68842;SHT35;55849;48.482;2.332;2024-02-26T21:42:48;10.17;81.71
68842;SHT35;55849;48.482;2.332;2024-02-26T21:45:49;10.15;81.80
68842;SHT35;55849;48.482;2.332;2024-02-26T21:48:52;10.15;82.09
68842;SHT35;55849;48.482;2.332;2024-02-26T21:51:54;10.17;81.83
68842;SHT35;55849;48.482;2.332;2024-02-26T21:54:57;10.17;81.47
68842;SHT35;55849;48.482;2.332;2024-02-26T21:57:58;10.12;81.38
68842;SHT35;55849;48.482;2.332;2024-02-26T22:01:00;10.11;81.88
68842;SHT35;55849;48.482;2.332;2024-02-26T22:04:03;10.14;81.68
68842;SHT35;55849;48.482;2.332;2024-02-26T22:07:05;10.14;81.64
68842;SHT35;55849;48.482;2.332;2024-02-26T22:10:07;10.11;81.43
68842;SHT35;55849;48.482;2.332;2024-02-26T22:13:09;10.11;81.93
68842;SHT35;55849;48.482;2.332;2024-02-26T22:16:11;10.10;81.49
68842;SHT35;55849;48.482;2.332;2024-02-26T22:19:14;10.11;81.82
68842;SHT35;55849;48.482;2.332;2024-02-26T22:22:18;10.14;81.89
